Airways and Terminal Forecast

Significant Meteorological Information

WSPH31 RPLL 140717
RPHI SIGMET A01 VALID 140720/141120 RPLL-
RPHI MANILA FIR EMBD TS OBS WI N1818 E12244 -

N1515 E12154 - N1421 E11924 - N1755 E11930 - N1847 E12009 -

N1906 E12110 - N1818 E12244 TOP FL510 MOV WSW 5KT INTSF=

Terminal Aerodrome Forecast

TERMINAL AERODROME FORECAST 0500Z 14 AUGUST 2020

 

TAF RPLL 140500Z 1406/1512 23005KT 9999 FEW022 BKN100 TX32/1406Z TN24/1421Z 
    TEMPO 1406/1412 25010KT 6000 -TSRA FEW020CB SCT020 OVC080 
    TEMPO 1412/1418 VRB06KT 8000 -SHRA FEW020CB FEW022 BKN100=

TAF RPVM 140500Z 1406/1512 23004KT 9999 FEW020 BKN100 
    TEMPO 1406/1412 02008KT  -SHRA FEW018CB FEW020 SCT100
    TEMPO 1412/1418 VRB06KT  FEW020 BKN300=

TAF RPLC 140500Z 1406/1512 18010KT 9999 SCT020 BKN100 TX33/1406Z TN24/1422Z 
    TEMPO 1406/1412 02012KT 7000 TS -SHRA FEW015CB SCT020 OVC100=

TAF RPLB 140500Z 1406/1506 05006KT 9999 FEW020 SCT080 TX32/1406Z TN24/1421Z 
    TEMPO 1406/1412 VRB07KT 6000 -TSRA FEW018CB SCT020 OVC080=

TAF RPLI 140500Z 1406/1506 VRB03KT 9999 FEW018 SCT100 BKN280 TX32/1406Z TN24/1421Z 
    TEMPO 1406/1412 29007KT 6000 -TSRA SCT017CB SCT018 BKN090=

TAF RPVP 140500Z 1406/1506 28004KT 9999 FEW019 BKN080 
    TEMPO 1406/1412 22004KT  -SHRA FEW017CB BKN080=

TAF RPVD 140500Z 1406/1506 27004KT 9999 FEW015 BKN220 
    TEMPO 1406/1412  -SHRA FEW014CB FEW015 BKN220=

TAF RPMR 140500Z  1406/1506 35005KT 9999 FEW018 BKN080 
    TEMPO 1406/1412 24004KT 9000 -TSRA FEW017CB SCT018 BKN080 
    TEMPO 1412/1418 31002KT -SHRA FEW017CB FEW018 BKN080=   

TAF RPMD 140500Z 1406/1506 34006KT 9999 FEW016 SCT090 BKN260  
    TEMPO 1409/1412 18006KT 8000 -SHRA FEW015CB BKN080 BKN260=

TAF RPMZ 140500Z 1406/1506 22004KT 9999 FEW017 SCT090
    TEMPO 1406/1412 24004KT FEW017=